Portada
METAR-TAF:

METAR-TAF

Aeroports :

Surat Thani, Tailàndia

latitud: 09-07N, longitud: 099-21E, altitud: 10 m

Observació

L'informe es va fer fa 31 minuts, a les 13:00 UTC
Vent 9 kt del Nord-Est
Temperatura 27°C
Humitat 70%
Pressió 1011 hPa
Visibilitat: 8000 m
Escasses núvols a una alçada de 2000 ft

METAR: VTSB 261300Z 05009KT 8000 FEW020 27/21 Q1011

Hora: 20:31 (13:31 UTC)

Pronòstic

L'informe es va fer fa 2 hores i 31 minuts, a les 11:00 UTC
Pronòstic vàlid del 26 a les 12 UTC al 27 a les 12 UTC
Vent 10 kt del Nord-Est
Visibilitat 10 km o més
Escasses núvols a una alçada de 2000 ft
Evolucionant progressivament
l' 26 a les 13 UTC al 26 a les 15 UTC
Vent 5 kt del Nord/Nord-Oest
Evolucionant progressivament
l' 27 a les 03 UTC al 27 a les 05 UTC
Vent 15 kt del Nord/Nord-Est

TAF: VTSB 261100Z 2612/2712 05010KT 9999 FEW020 BECMG 2613/2615 33005KT BECMG 2703/2705 03015KT

Observacions i pronòstics meteorològics de més de 4000 aeroports (METAR i TAF).

Les estacions disponibles són els punts grocs i vermells al mapa.

Posi el ratolí al punt desitjat per veure el nom de l'estació.

Feu clic per veure les observacions i els pronòstics meteorològics.

Per canviar el mapa: feu clic els botons verds amb una creu de color negre per apropar; al botó verd amb un guió per allunyar la imatge; o en les fletxes verdes per a mapes adjacents.


METAR-TAF: